createdAt,value
2022-09-02T00:00:30.639Z,19.51
2022-09-02T00:01:30.636Z,19.49
2022-09-02T00:02:30.778Z,19.45
2022-09-02T00:03:30.814Z,19.51
2022-09-02T00:04:30.643Z,19.49
2022-09-02T00:05:30.636Z,19.55
2022-09-02T00:06:30.642Z,19.49
2022-09-02T00:07:30.639Z,19.49
2022-09-02T00:08:30.639Z,19.47
2022-09-02T00:09:30.634Z,19.49
2022-09-02T00:10:30.643Z,19.52
2022-09-02T00:11:30.637Z,19.48
2022-09-02T00:12:30.641Z,19.48
2022-09-02T00:13:30.633Z,19.47
2022-09-02T00:14:30.634Z,19.52
2022-09-02T00:15:30.632Z,19.48
2022-09-02T00:16:30.652Z,19.55
2022-09-02T00:17:30.630Z,19.52
2022-09-02T00:18:30.639Z,19.52
2022-09-02T00:19:30.641Z,19.54
2022-09-02T00:20:30.631Z,19.54
2022-09-02T00:21:30.633Z,19.48
2022-09-02T00:22:30.639Z,19.41
2022-09-02T00:23:30.630Z,19.49
2022-09-02T00:24:30.632Z,19.49
2022-09-02T00:25:30.631Z,19.45
2022-09-02T00:26:30.632Z,19.51
2022-09-02T00:27:30.628Z,19.49
2022-09-02T00:28:30.630Z,19.47
2022-09-02T00:29:30.626Z,19.51
2022-09-02T00:30:30.636Z,19.54
2022-09-02T00:31:30.686Z,19.52
2022-09-02T00:32:30.635Z,19.51
2022-09-02T00:33:30.624Z,19.55
2022-09-02T00:34:30.625Z,19.52
2022-09-02T00:35:30.624Z,19.51
2022-09-02T00:36:30.630Z,19.48
2022-09-02T00:37:30.624Z,19.51
2022-09-02T00:38:30.626Z,19.52
2022-09-02T00:39:30.623Z,19.54
2022-09-02T00:40:30.720Z,19.51
2022-09-02T00:41:30.623Z,19.49
2022-09-02T00:42:30.624Z,19.54
2022-09-02T00:43:30.625Z,19.58
2022-09-02T00:44:30.625Z,19.55
2022-09-02T00:45:30.674Z,19.49
2022-09-02T00:46:30.677Z,19.51
2022-09-02T00:47:30.621Z,19.47
2022-09-02T00:48:30.628Z,19.49
2022-09-02T00:49:31.076Z,19.45
2022-09-02T00:50:30.621Z,19.51
2022-09-02T00:51:30.623Z,19.40
2022-09-02T00:52:30.620Z,19.40
2022-09-02T00:53:30.618Z,19.45
2022-09-02T00:54:30.626Z,19.40
2022-09-02T00:55:30.619Z,19.41
2022-09-02T00:56:30.618Z,19.41
2022-09-02T00:57:30.617Z,19.44
2022-09-02T00:58:30.618Z,19.44
2022-09-02T00:59:30.618Z,19.41
2022-09-02T01:00:34.493Z,19.52
2022-09-02T01:01:30.726Z,19.44
2022-09-02T01:02:30.624Z,19.52
2022-09-02T01:03:30.631Z,19.45
2022-09-02T01:04:30.622Z,19.45
2022-09-02T01:05:30.613Z,19.51
2022-09-02T01:06:30.622Z,19.48
2022-09-02T01:07:30.618Z,19.45
2022-09-02T01:08:30.616Z,19.51
2022-09-02T01:09:30.612Z,19.48
2022-09-02T01:10:30.615Z,19.51
2022-09-02T01:11:30.612Z,19.47
2022-09-02T01:12:30.615Z,19.54
2022-09-02T01:13:30.614Z,19.54
2022-09-02T01:14:30.614Z,19.51
2022-09-02T01:15:30.610Z,19.55
2022-09-02T01:16:30.682Z,19.54
2022-09-02T01:17:30.611Z,19.55
2022-09-02T01:18:30.616Z,19.58
2022-09-02T01:19:30.611Z,19.52
2022-09-02T01:20:30.617Z,19.51
2022-09-02T01:21:30.609Z,19.52
2022-09-02T01:22:30.612Z,19.49
2022-09-02T01:23:32.368Z,19.48
2022-09-02T01:24:30.612Z,19.49
2022-09-02T01:25:30.607Z,19.52
2022-09-02T01:26:30.609Z,19.44
2022-09-02T01:27:30.608Z,19.45
2022-09-02T01:28:30.613Z,19.45
2022-09-02T01:29:30.606Z,19.39
2022-09-02T01:30:30.609Z,19.44
2022-09-02T01:31:30.687Z,19.45
2022-09-02T01:32:30.609Z,19.45
2022-09-02T01:33:31.659Z,19.47
2022-09-02T01:34:30.605Z,19.45
2022-09-02T01:35:30.602Z,19.41
2022-09-02T01:36:30.607Z,19.48
2022-09-02T01:37:30.602Z,19.48
2022-09-02T01:38:30.603Z,19.45
2022-09-02T01:39:30.602Z,19.49
2022-09-02T01:40:30.636Z,19.45
2022-09-02T01:41:30.601Z,19.47
2022-09-02T01:42:30.604Z,19.49
2022-09-02T01:43:30.600Z,19.49
2022-09-02T01:44:30.602Z,19.49
2022-09-02T01:45:30.604Z,19.48
2022-09-02T01:46:30.661Z,19.55
2022-09-02T01:47:30.600Z,19.49
2022-09-02T01:48:30.601Z,19.49
2022-09-02T01:49:30.848Z,19.51
2022-09-02T01:50:30.599Z,19.49
2022-09-02T01:51:30.603Z,19.48
2022-09-02T01:52:30.599Z,19.51
2022-09-02T01:53:30.605Z,19.49
2022-09-02T01:54:30.598Z,19.51
2022-09-02T01:55:30.596Z,19.45
2022-09-02T01:56:30.596Z,19.41
2022-09-02T01:57:30.594Z,19.45
2022-09-02T01:58:30.598Z,19.48
2022-09-02T01:59:30.602Z,19.45
2022-09-02T02:00:30.683Z,19.47
2022-09-02T02:01:30.673Z,19.47
2022-09-02T02:02:30.597Z,19.44
2022-09-02T02:03:30.626Z,19.47
2022-09-02T02:04:30.603Z,19.49
2022-09-02T02:05:30.594Z,19.48
2022-09-02T02:06:30.596Z,19.44
2022-09-02T02:07:30.594Z,19.54
2022-09-02T02:08:30.593Z,19.48
2022-09-02T02:09:30.592Z,19.48
2022-09-02T02:10:30.592Z,19.49
2022-09-02T02:11:30.593Z,19.52
2022-09-02T02:12:30.591Z,19.47
2022-09-02T02:13:30.593Z,19.48
2022-09-02T02:14:30.589Z,19.47
2022-09-02T02:16:10.123Z,19.41
2022-09-02T02:17:10.086Z,19.47
2022-09-02T02:18:10.088Z,19.41
2022-09-02T02:19:10.090Z,19.51
2022-09-02T02:20:10.083Z,19.40
2022-09-02T02:21:10.083Z,19.49
2022-09-02T02:22:10.084Z,19.41
2022-09-02T02:23:10.084Z,19.44
2022-09-02T02:24:10.084Z,19.49
2022-09-02T02:25:10.085Z,19.41
2022-09-02T02:26:10.086Z,19.41
2022-09-02T02:27:10.082Z,19.45
2022-09-02T02:28:10.109Z,19.44
2022-09-02T02:29:10.081Z,19.40
2022-09-02T02:30:10.096Z,19.44
2022-09-02T02:31:10.118Z,19.40
2022-09-02T02:32:10.082Z,19.44
2022-09-02T02:33:10.128Z,19.39
2022-09-02T02:34:10.082Z,19.39
2022-09-02T02:35:10.080Z,19.52
2022-09-02T02:36:10.079Z,19.39
2022-09-02T02:37:10.079Z,19.39
2022-09-02T02:38:10.076Z,19.41
2022-09-02T02:39:10.079Z,19.40
2022-09-02T02:40:10.150Z,19.37
2022-09-02T02:41:10.076Z,19.45
2022-09-02T02:42:10.078Z,19.40
2022-09-02T02:43:10.078Z,19.36
2022-09-02T02:44:10.081Z,19.40
2022-09-02T02:45:10.079Z,19.39
2022-09-02T02:46:10.103Z,19.34
2022-09-02T02:47:10.078Z,19.31
2022-09-02T02:48:10.080Z,19.33
2022-09-02T02:49:10.076Z,19.31
2022-09-02T02:50:10.073Z,19.36
2022-09-02T02:51:10.072Z,19.33
2022-09-02T02:52:10.073Z,19.34
2022-09-02T02:53:10.071Z,19.37
2022-09-02T02:54:10.077Z,19.34
2022-09-02T02:55:10.073Z,19.36
2022-09-02T02:56:10.068Z,19.37
2022-09-02T02:57:10.068Z,19.29
2022-09-02T02:58:10.070Z,19.24
2022-09-02T02:59:10.071Z,19.26
2022-09-02T03:00:10.072Z,19.26
2022-09-02T03:01:10.070Z,19.29
2022-09-02T03:02:10.222Z,19.22
2022-09-02T03:03:10.198Z,19.27
2022-09-02T03:04:10.070Z,19.14
2022-09-02T03:05:10.066Z,19.19
2022-09-02T03:06:10.066Z,19.12
2022-09-02T03:07:10.065Z,19.14
2022-09-02T03:08:10.065Z,19.12
2022-09-02T03:09:10.061Z,19.19
2022-09-02T03:10:10.065Z,19.11
2022-09-02T03:11:10.065Z,19.15
2022-09-02T03:12:10.063Z,19.11
2022-09-02T03:13:10.060Z,19.15
2022-09-02T03:14:10.071Z,19.14
2022-09-02T03:15:10.060Z,19.15
2022-09-02T03:16:10.141Z,19.21
2022-09-02T03:17:10.066Z,19.09
2022-09-02T03:18:10.061Z,19.12
2022-09-02T03:19:10.059Z,19.09
2022-09-02T03:20:10.060Z,19.02
2022-09-02T03:21:10.055Z,18.99
2022-09-02T03:22:10.058Z,19.04
2022-09-02T03:23:10.054Z,18.99
2022-09-02T03:24:10.058Z,19.07
2022-09-02T03:25:10.056Z,19.02
2022-09-02T03:26:10.053Z,18.96
2022-09-02T03:27:10.054Z,18.95
2022-09-02T03:28:10.055Z,18.89
2022-09-02T03:29:10.051Z,18.93
2022-09-02T03:30:10.057Z,18.89
2022-09-02T03:31:10.126Z,18.92
2022-09-02T03:32:10.055Z,18.92
2022-09-02T03:33:10.051Z,18.86
2022-09-02T03:34:10.053Z,18.92
2022-09-02T03:35:10.049Z,18.84
2022-09-02T03:36:10.048Z,18.88
2022-09-02T03:37:10.049Z,18.83
2022-09-02T03:38:10.050Z,18.77
2022-09-02T03:39:10.272Z,18.65
2022-09-02T03:40:10.154Z,18.58
2022-09-02T03:41:10.045Z,18.55
2022-09-02T03:42:11.225Z,18.37
2022-09-02T03:43:10.045Z,18.28
2022-09-02T03:44:10.044Z,18.31
2022-09-02T03:45:10.043Z,18.22
2022-09-02T03:46:10.167Z,18.22
2022-09-02T03:47:10.040Z,18.22
2022-09-02T03:48:10.039Z,18.26
2022-09-02T03:49:10.045Z,18.20
2022-09-02T03:50:10.390Z,18.35
2022-09-02T03:51:10.042Z,18.33
2022-09-02T03:52:10.040Z,18.33
2022-09-02T03:53:10.035Z,18.34
2022-09-02T03:54:10.038Z,18.26
2022-09-02T03:55:10.037Z,18.35
2022-09-02T03:56:10.035Z,18.28
2022-09-02T03:57:10.033Z,18.33
2022-09-02T03:58:10.033Z,18.29
2022-09-02T03:59:10.030Z,18.28
2022-09-02T04:00:10.033Z,18.33
2022-09-02T04:01:10.035Z,18.35
2022-09-02T04:02:10.146Z,18.31
2022-09-02T04:03:10.080Z,18.37
2022-09-02T04:04:10.031Z,18.37
2022-09-02T04:05:13.674Z,18.31
2022-09-02T04:06:10.039Z,18.31
2022-09-02T04:07:10.026Z,18.29
2022-09-02T04:08:10.031Z,18.19
2022-09-02T04:09:10.028Z,18.08
2022-09-02T04:10:10.024Z,17.97
2022-09-02T04:11:10.025Z,17.90
2022-09-02T04:12:10.025Z,17.82
2022-09-02T04:13:10.023Z,17.70
2022-09-02T04:14:10.021Z,17.59
2022-09-02T04:15:10.021Z,17.49
2022-09-02T04:16:10.491Z,17.46
2022-09-02T04:17:10.020Z,17.42
2022-09-02T04:18:10.020Z,17.22
2022-09-02T04:19:10.023Z,17.12
2022-09-02T04:20:10.014Z,17.04
2022-09-02T04:21:10.013Z,16.96
2022-09-02T04:22:10.016Z,16.86
2022-09-02T04:23:10.012Z,16.69
2022-09-02T04:24:10.016Z,16.75
2022-09-02T04:25:10.008Z,16.69
2022-09-02T04:26:10.012Z,16.54
2022-09-02T04:27:10.010Z,16.53
2022-09-02T04:28:10.010Z,16.42
2022-09-02T04:29:10.009Z,16.50
2022-09-02T04:30:10.005Z,16.38
2022-09-02T04:31:10.095Z,16.36
2022-09-02T04:32:10.006Z,16.31
2022-09-02T04:33:10.000Z,16.41
2022-09-02T04:34:10.002Z,16.29
2022-09-02T04:35:10.009Z,16.24
2022-09-02T04:36:10.002Z,16.32
2022-09-02T04:37:10.000Z,16.35
2022-09-02T04:38:10.002Z,16.28
2022-09-02T04:39:09.995Z,16.29
2022-09-02T04:40:10.065Z,16.21
2022-09-02T04:41:09.992Z,16.28
2022-09-02T04:42:09.990Z,16.23
2022-09-02T04:43:09.997Z,16.21
2022-09-02T04:44:09.991Z,16.28
2022-09-02T04:45:09.993Z,16.17
2022-09-02T04:46:10.032Z,16.17
2022-09-02T04:47:09.985Z,16.20
2022-09-02T04:48:09.992Z,16.13
2022-09-02T04:49:09.999Z,16.17
2022-09-02T04:50:09.984Z,16.13
2022-09-02T04:51:09.996Z,16.12
2022-09-02T04:52:09.980Z,16.08
2022-09-02T04:53:09.976Z,16.08
2022-09-02T04:54:09.979Z,16.05
2022-09-02T04:55:09.976Z,16.00
2022-09-02T04:56:09.982Z,16.08
2022-09-02T04:57:10.004Z,16.09
2022-09-02T04:58:09.988Z,16.13
2022-09-02T04:59:09.972Z,16.13
2022-09-02T05:00:09.987Z,16.13
2022-09-02T05:01:10.011Z,16.13
2022-09-02T05:02:10.180Z,16.15
2022-09-02T05:03:09.966Z,16.20
2022-09-02T05:04:10.130Z,16.21
2022-09-02T05:05:09.964Z,16.16
2022-09-02T05:06:09.959Z,16.12
2022-09-02T05:07:09.960Z,16.10
2022-09-02T05:08:09.956Z,15.95
2022-09-02T05:09:09.954Z,15.92
2022-09-02T05:10:09.956Z,15.88
2022-09-02T05:11:09.953Z,15.88
2022-09-02T05:12:09.958Z,15.79
2022-09-02T05:13:09.950Z,15.75
2022-09-02T05:14:09.948Z,15.77
2022-09-02T05:15:09.944Z,15.67
2022-09-02T05:16:10.027Z,15.75
2022-09-02T05:17:09.942Z,15.77
2022-09-02T05:18:09.954Z,15.77
2022-09-02T05:19:09.942Z,15.76
2022-09-02T05:20:09.943Z,15.70
2022-09-02T05:21:09.937Z,15.72
2022-09-02T05:22:09.937Z,15.77
2022-09-02T05:23:09.935Z,15.77
2022-09-02T05:24:09.937Z,15.91
2022-09-02T05:25:09.932Z,15.94
2022-09-02T05:26:09.931Z,16.01
2022-09-02T05:27:09.938Z,16.08
2022-09-02T05:28:09.929Z,16.12
2022-09-02T05:29:09.929Z,16.10
2022-09-02T05:30:09.932Z,16.13
2022-09-02T05:31:10.103Z,16.33
2022-09-02T05:32:09.923Z,16.31
2022-09-02T05:33:09.949Z,16.32
2022-09-02T05:34:09.930Z,16.36
2022-09-02T05:35:09.921Z,16.58
2022-09-02T05:36:09.917Z,16.66
2022-09-02T05:37:09.915Z,16.75
2022-09-02T05:38:09.915Z,16.74
2022-09-02T05:39:09.910Z,16.83
2022-09-02T05:40:10.006Z,16.86
2022-09-02T05:41:09.908Z,16.86
2022-09-02T05:42:09.906Z,16.84
2022-09-02T05:43:09.905Z,16.91
2022-09-02T05:44:09.904Z,16.90
2022-09-02T05:45:09.902Z,16.97
2022-09-02T05:46:09.970Z,16.86
2022-09-02T05:47:09.902Z,16.94
2022-09-02T05:48:09.899Z,17.01
2022-09-02T05:49:09.897Z,17.02
2022-09-02T05:50:09.900Z,16.94
2022-09-02T05:51:09.893Z,17.16
2022-09-02T05:52:09.893Z,17.06
2022-09-02T05:53:14.228Z,17.12
2022-09-02T05:54:09.891Z,17.19
2022-09-02T05:55:09.888Z,17.26
2022-09-02T05:56:09.888Z,17.26
2022-09-02T05:57:09.889Z,17.31
2022-09-02T05:58:09.954Z,17.36
2022-09-02T05:59:09.884Z,17.39
2022-09-02T06:00:09.887Z,17.44
2022-09-02T06:01:09.881Z,17.39
2022-09-02T06:02:10.001Z,17.46
2022-09-02T06:03:09.926Z,17.48
2022-09-02T06:04:09.875Z,17.51
2022-09-02T06:05:09.874Z,17.49
2022-09-02T06:06:09.889Z,17.49
2022-09-02T06:07:09.926Z,17.63
2022-09-02T06:08:09.879Z,17.60
2022-09-02T06:09:09.868Z,17.65
2022-09-02T06:10:09.872Z,17.70
2022-09-02T06:11:09.867Z,17.76
2022-09-02T06:12:09.868Z,17.80
2022-09-02T06:13:09.863Z,17.79
2022-09-02T06:14:09.865Z,17.79
2022-09-02T06:15:09.863Z,17.83
2022-09-02T06:16:09.923Z,17.94
2022-09-02T06:17:09.861Z,17.85
2022-09-02T06:18:09.857Z,17.92
2022-09-02T06:19:09.856Z,17.90
2022-09-02T06:20:10.371Z,17.92
2022-09-02T06:21:09.855Z,18.00
2022-09-02T06:22:09.854Z,17.95
2022-09-02T06:23:09.852Z,17.95
2022-09-02T06:24:09.851Z,18.00
2022-09-02T06:25:09.849Z,18.15
2022-09-02T06:26:09.853Z,18.05
2022-09-02T06:27:09.848Z,18.15
2022-09-02T06:28:09.852Z,18.11
2022-09-02T06:29:09.846Z,18.13
2022-09-02T06:30:09.845Z,18.08
2022-09-02T06:31:09.950Z,18.08
2022-09-02T06:32:09.850Z,18.05
2022-09-02T06:33:09.841Z,18.16
2022-09-02T06:34:09.840Z,18.16
2022-09-02T06:35:09.861Z,18.11
2022-09-02T06:36:09.844Z,18.22
2022-09-02T06:37:09.840Z,18.38
2022-09-02T06:38:09.835Z,18.31
2022-09-02T06:39:09.840Z,18.31
2022-09-02T06:40:09.873Z,18.23
2022-09-02T06:41:09.832Z,18.29
2022-09-02T06:42:09.829Z,18.33
2022-09-02T06:43:09.831Z,18.35
2022-09-02T06:44:09.836Z,18.28
2022-09-02T06:45:09.825Z,18.29
2022-09-02T06:46:09.854Z,18.31
2022-09-02T06:47:09.824Z,18.38
2022-09-02T06:48:09.823Z,18.40
2022-09-02T06:49:09.822Z,18.44
2022-09-02T06:50:09.820Z,18.41
2022-09-02T06:51:09.825Z,18.45
2022-09-02T06:52:09.819Z,18.55
2022-09-02T06:53:09.820Z,18.58
2022-09-02T06:54:09.819Z,18.58
2022-09-02T06:55:09.819Z,18.55
2022-09-02T06:56:09.816Z,18.55
2022-09-02T06:57:09.817Z,18.58
2022-09-02T06:58:09.815Z,18.60
2022-09-02T06:59:09.814Z,18.63
2022-09-02T07:00:09.812Z,18.60
2022-09-02T07:01:10.067Z,18.60
2022-09-02T07:02:10.026Z,18.55
2022-09-02T07:03:09.812Z,18.60
2022-09-02T07:04:09.809Z,18.62
2022-09-02T07:05:09.809Z,18.70
2022-09-02T07:06:09.807Z,18.71
2022-09-02T07:07:09.812Z,18.73
2022-09-02T07:08:09.808Z,18.78
2022-09-02T07:09:09.803Z,18.77
2022-09-02T07:10:09.803Z,18.70
2022-09-02T07:11:09.805Z,18.75
2022-09-02T07:12:09.801Z,18.84
2022-09-02T07:13:09.804Z,18.81
2022-09-02T07:14:09.800Z,18.92
2022-09-02T07:15:09.804Z,18.90
2022-09-02T07:16:09.857Z,18.88
2022-09-02T07:17:09.869Z,18.93
2022-09-02T07:18:09.795Z,18.92
2022-09-02T07:19:14.073Z,18.89
2022-09-02T07:20:09.799Z,19.07
2022-09-02T07:21:09.793Z,19.08
2022-09-02T07:22:09.793Z,19.02
2022-09-02T07:23:09.791Z,19.14
2022-09-02T07:24:09.790Z,19.16
2022-09-02T07:25:09.798Z,19.26
2022-09-02T07:26:09.789Z,19.29
2022-09-02T07:27:09.792Z,19.31
2022-09-02T07:28:09.789Z,19.37
2022-09-02T07:29:09.788Z,19.44
2022-09-02T07:30:09.788Z,19.52
2022-09-02T07:31:09.836Z,19.59
2022-09-02T07:32:09.785Z,19.74
2022-09-02T07:33:09.785Z,19.82
2022-09-02T07:34:09.783Z,19.77
2022-09-02T07:35:09.784Z,19.81
2022-09-02T07:36:11.107Z,19.91
2022-09-02T07:37:11.031Z,20.02
2022-09-02T07:38:09.780Z,20.00
2022-09-02T07:39:09.783Z,19.99
2022-09-02T07:40:09.832Z,19.95
2022-09-02T07:41:09.781Z,20.09
2022-09-02T07:42:09.778Z,20.14
2022-09-02T07:43:09.781Z,20.16
2022-09-02T07:44:09.780Z,20.22
2022-09-02T07:45:09.776Z,20.19
2022-09-02T07:46:09.800Z,20.21
2022-09-02T07:47:09.777Z,20.22
2022-09-02T07:48:09.777Z,20.22
2022-09-02T07:49:09.775Z,20.22
2022-09-02T07:50:20.169Z,20.21
2022-09-02T07:51:09.777Z,20.21
2022-09-02T07:52:09.773Z,20.04
2022-09-02T07:53:09.772Z,20.09
2022-09-02T07:54:09.772Z,20.07
2022-09-02T07:55:14.536Z,20.10
2022-09-02T07:56:09.775Z,20.07
2022-09-02T07:57:09.777Z,20.09
2022-09-02T07:58:09.776Z,20.10
2022-09-02T07:59:09.775Z,20.16
2022-09-02T08:00:09.770Z,20.22
2022-09-02T08:01:09.968Z,20.22
2022-09-02T08:02:09.833Z,20.26
2022-09-02T08:03:09.806Z,20.40
2022-09-02T08:04:09.772Z,20.43
2022-09-02T08:05:09.768Z,20.48
2022-09-02T08:06:09.765Z,20.67
2022-09-02T08:07:09.770Z,20.60
2022-09-02T08:08:09.766Z,20.72
2022-09-02T08:09:09.767Z,20.82
2022-09-02T08:10:09.766Z,20.96
2022-09-02T08:11:09.768Z,21.03
2022-09-02T08:12:09.767Z,21.05
2022-09-02T08:13:09.784Z,21.12
2022-09-02T08:14:09.766Z,21.20
2022-09-02T08:15:09.769Z,21.22
2022-09-02T08:16:09.839Z,21.20
2022-09-02T08:17:09.768Z,21.32
2022-09-02T08:18:12.515Z,21.29
2022-09-02T08:19:09.773Z,21.35
2022-09-02T08:20:12.423Z,21.37
2022-09-02T08:21:09.767Z,21.43
2022-09-02T08:22:09.776Z,21.50
2022-09-02T08:23:18.527Z,21.45
2022-09-02T08:24:09.935Z,21.50
2022-09-02T08:25:09.775Z,21.57
2022-09-02T08:26:09.783Z,21.57
2022-09-02T08:27:09.773Z,21.62
2022-09-02T08:28:09.780Z,21.58
2022-09-02T08:29:09.781Z,21.52
2022-09-02T08:30:09.774Z,21.46
2022-09-02T08:31:09.780Z,21.51
2022-09-02T08:32:09.861Z,21.46
2022-09-02T08:33:09.778Z,21.50
2022-09-02T08:34:09.775Z,21.54
2022-09-02T08:35:09.775Z,21.50
2022-09-02T08:36:09.782Z,21.51
2022-09-02T08:37:09.790Z,21.50
2022-09-02T08:38:09.779Z,21.46
2022-09-02T08:39:09.780Z,21.57
2022-09-02T08:40:09.819Z,21.60
2022-09-02T08:41:09.783Z,21.55
2022-09-02T08:42:09.786Z,21.60
2022-09-02T08:43:09.785Z,21.61
2022-09-02T08:44:09.780Z,21.58
2022-09-02T08:45:09.779Z,21.66
2022-09-02T08:46:09.869Z,21.57
2022-09-02T08:47:09.784Z,21.57
2022-09-02T08:48:09.783Z,21.57
2022-09-02T08:49:09.789Z,21.58
2022-09-02T08:50:09.783Z,21.60
2022-09-02T08:51:09.785Z,21.70
2022-09-02T08:52:09.786Z,21.73
2022-09-02T08:53:09.788Z,21.82
2022-09-02T08:54:09.784Z,21.80
2022-09-02T08:55:09.788Z,21.83
2022-09-02T08:56:09.785Z,21.95
2022-09-02T08:57:09.786Z,22.02
2022-09-02T08:58:09.793Z,22.00
2022-09-02T08:59:09.788Z,22.04
2022-09-02T09:00:09.789Z,21.99
2022-09-02T09:01:09.897Z,22.11
2022-09-02T09:02:09.829Z,22.14
2022-09-02T09:03:09.791Z,22.15
2022-09-02T09:04:09.863Z,22.14
2022-09-02T09:05:09.794Z,22.25
2022-09-02T09:06:09.793Z,22.20
2022-09-02T09:07:09.798Z,22.20
2022-09-02T09:08:12.494Z,22.22
2022-09-02T09:09:09.788Z,22.20
2022-09-02T09:10:09.793Z,22.20
2022-09-02T09:11:09.793Z,22.20
2022-09-02T09:12:09.791Z,22.17
2022-09-02T09:13:09.796Z,22.18
2022-09-02T09:14:09.790Z,22.25
2022-09-02T09:15:09.795Z,22.22
2022-09-02T09:16:09.827Z,22.26
2022-09-02T09:17:09.791Z,22.35
2022-09-02T09:18:09.796Z,22.38
2022-09-02T09:19:09.795Z,22.38
2022-09-02T09:20:09.793Z,22.39
2022-09-02T09:21:10.995Z,22.44
2022-09-02T09:22:09.793Z,22.36
2022-09-02T09:23:09.800Z,22.62
2022-09-02T09:24:09.796Z,22.68
2022-09-02T09:25:09.798Z,22.57
2022-09-02T09:26:09.794Z,22.66
2022-09-02T09:27:09.798Z,22.65
2022-09-02T09:28:09.798Z,22.72
2022-09-02T09:29:09.795Z,22.73
2022-09-02T09:30:14.910Z,22.70
2022-09-02T09:31:09.808Z,22.72
2022-09-02T09:32:09.798Z,22.69
2022-09-02T09:33:09.801Z,22.68
2022-09-02T09:34:09.808Z,22.76
2022-09-02T09:35:09.806Z,22.83
2022-09-02T09:36:09.804Z,22.88
2022-09-02T09:37:09.802Z,22.88
2022-09-02T09:38:09.799Z,22.90
2022-09-02T09:39:09.801Z,22.94
2022-09-02T09:40:09.859Z,22.91
2022-09-02T09:41:09.800Z,22.98
2022-09-02T09:42:09.803Z,23.00
2022-09-02T09:43:14.973Z,23.00
2022-09-02T09:44:09.804Z,23.06
2022-09-02T09:45:09.804Z,23.10
2022-09-02T09:46:09.857Z,23.15
2022-09-02T09:47:11.787Z,23.17
2022-09-02T09:48:09.809Z,23.15
2022-09-02T09:49:10.689Z,23.24
2022-09-02T09:50:09.806Z,23.27
2022-09-02T09:51:09.810Z,23.44
2022-09-02T09:52:09.809Z,23.27
2022-09-02T09:53:09.807Z,23.36
2022-09-02T09:54:09.816Z,23.46
2022-09-02T09:55:12.230Z,23.40
2022-09-02T09:56:09.810Z,23.43
2022-09-02T09:57:09.812Z,23.54
2022-09-02T09:58:09.812Z,23.51
2022-09-02T09:59:09.813Z,23.41
2022-09-02T10:00:09.810Z,23.50
2022-09-02T10:01:10.110Z,23.47
2022-09-02T10:02:09.858Z,23.51
2022-09-02T10:03:09.815Z,23.58
2022-09-02T10:04:32.383Z,23.43
2022-09-02T10:05:09.813Z,23.51
2022-09-02T10:06:09.814Z,23.54
2022-09-02T10:07:09.817Z,23.54
2022-09-02T10:08:15.039Z,23.47
2022-09-02T10:09:09.816Z,23.47
2022-09-02T10:10:09.818Z,23.40
2022-09-02T10:11:09.818Z,23.39
2022-09-02T10:12:09.815Z,23.44
2022-09-02T10:13:09.857Z,23.41
2022-09-02T10:14:09.816Z,23.58
2022-09-02T10:15:09.819Z,23.65
2022-09-02T10:16:09.848Z,23.71
2022-09-02T10:17:09.821Z,23.73
2022-09-02T10:18:09.819Z,23.71
2022-09-02T10:19:09.821Z,23.81
2022-09-02T10:20:09.821Z,23.88
2022-09-02T10:21:15.249Z,24.01
2022-09-02T10:22:09.824Z,24.02
2022-09-02T10:23:09.827Z,24.05
2022-09-02T10:24:09.824Z,23.99
2022-09-02T10:25:09.830Z,24.02
2022-09-02T10:26:09.826Z,24.01
2022-09-02T10:27:09.827Z,23.93
2022-09-02T10:28:09.825Z,23.93
2022-09-02T10:29:09.831Z,23.93
2022-09-02T10:30:09.825Z,23.88
2022-09-02T10:31:09.887Z,23.91
2022-09-02T10:32:09.828Z,24.05
2022-09-02T10:33:09.831Z,24.02
2022-09-02T10:34:09.837Z,23.98
2022-09-02T10:35:09.831Z,24.03
2022-09-02T10:36:12.823Z,24.05
2022-09-02T10:37:09.833Z,24.06
2022-09-02T10:38:09.833Z,24.03
2022-09-02T10:39:09.833Z,24.03
2022-09-02T10:40:09.921Z,24.03
2022-09-02T10:41:09.840Z,24.01
2022-09-02T10:42:09.844Z,23.91
2022-09-02T10:43:09.837Z,23.92
2022-09-02T10:44:09.842Z,24.02
2022-09-02T10:45:09.840Z,23.99
2022-09-02T10:46:09.838Z,24.02
2022-09-02T10:47:09.840Z,24.01
2022-09-02T10:48:09.843Z,24.03
2022-09-02T10:49:09.843Z,24.06
2022-09-02T10:50:09.842Z,24.06
2022-09-02T10:51:09.842Z,24.05
2022-09-02T10:52:09.883Z,24.05
2022-09-02T10:53:09.880Z,24.05
2022-09-02T10:54:09.861Z,24.03
2022-09-02T10:55:09.848Z,24.03
2022-09-02T10:56:09.848Z,24.01
2022-09-02T10:57:09.853Z,23.87
2022-09-02T10:58:09.853Z,23.91
2022-09-02T10:59:09.851Z,23.83
2022-09-02T11:00:09.853Z,23.83
2022-09-02T11:01:09.947Z,23.80
2022-09-02T11:02:09.854Z,23.88
2022-09-02T11:03:09.889Z,23.81
2022-09-02T11:04:09.856Z,23.86
2022-09-02T11:05:09.852Z,23.81
2022-09-02T11:06:09.859Z,23.80
2022-09-02T11:07:09.855Z,23.84
2022-09-02T11:08:09.859Z,23.76
2022-09-02T11:09:09.859Z,23.77
2022-09-02T11:10:09.859Z,23.83
2022-09-02T11:11:09.859Z,23.81
2022-09-02T11:12:09.864Z,23.74
2022-09-02T11:13:09.859Z,23.83
2022-09-02T11:14:09.863Z,23.81
2022-09-02T11:15:09.864Z,23.68
2022-09-02T11:16:09.942Z,23.73
2022-09-02T11:17:13.362Z,23.66
2022-09-02T11:18:09.930Z,23.59
2022-09-02T11:19:09.864Z,23.62
2022-09-02T11:20:09.870Z,23.55
2022-09-02T11:21:09.867Z,23.59
2022-09-02T11:22:09.867Z,23.59
2022-09-02T11:23:09.870Z,23.55
2022-09-02T11:24:09.874Z,23.51
2022-09-02T11:25:09.870Z,23.58
2022-09-02T11:26:09.870Z,23.62
2022-09-02T11:27:26.013Z,23.56
2022-09-02T11:28:09.875Z,23.63
2022-09-02T11:29:09.874Z,23.55
2022-09-02T11:30:09.878Z,23.54
2022-09-02T11:31:09.875Z,23.54
2022-09-02T11:32:09.878Z,23.56
2022-09-02T11:33:09.876Z,23.48
2022-09-02T11:34:09.881Z,23.55
2022-09-02T11:35:09.879Z,23.56
2022-09-02T11:36:09.889Z,23.58
2022-09-02T11:37:10.838Z,23.61
2022-09-02T11:38:09.887Z,23.59
2022-09-02T11:39:09.881Z,23.61
2022-09-02T11:40:33.114Z,23.59
2022-09-02T11:42:09.959Z,23.61
2022-09-02T11:43:09.885Z,23.56
2022-09-02T11:44:09.890Z,23.59
2022-09-02T11:45:09.915Z,23.62
2022-09-02T11:46:09.927Z,23.56
2022-09-02T11:47:09.888Z,23.54
2022-09-02T11:48:09.895Z,23.59
2022-09-02T11:49:09.889Z,23.59
2022-09-02T11:50:09.898Z,23.56
2022-09-02T11:51:09.948Z,23.63
2022-09-02T11:52:09.984Z,23.61
2022-09-02T11:53:09.893Z,23.62
2022-09-02T11:54:09.898Z,23.68
2022-09-02T11:55:09.898Z,23.66
2022-09-02T11:56:09.936Z,23.68
2022-09-02T11:57:09.922Z,23.76
2022-09-02T11:58:09.906Z,23.68
2022-09-02T11:59:09.901Z,23.73
2022-09-02T12:00:09.905Z,23.77
2022-09-02T12:01:13.971Z,23.74
2022-09-02T12:02:09.912Z,23.87
2022-09-02T12:03:28.536Z,23.91
2022-09-02T12:05:10.351Z,23.95
2022-09-02T12:06:10.101Z,23.98
2022-09-02T12:07:10.668Z,24.03
2022-09-02T12:08:09.909Z,24.02
2022-09-02T12:09:09.918Z,24.01
2022-09-02T12:10:09.910Z,24.03
2022-09-02T12:11:09.909Z,24.05
2022-09-02T12:12:09.916Z,24.01
2022-09-02T12:13:10.077Z,23.99
2022-09-02T12:14:09.912Z,24.05
2022-09-02T12:15:09.912Z,24.01
2022-09-02T12:16:09.964Z,23.91
2022-09-02T12:17:09.913Z,23.87
2022-09-02T12:18:09.918Z,23.99
2022-09-02T12:19:09.916Z,23.95
2022-09-02T12:20:10.051Z,23.91
2022-09-02T12:21:12.760Z,23.91
2022-09-02T12:22:09.926Z,23.92
2022-09-02T12:23:09.920Z,23.80
2022-09-02T12:24:09.958Z,23.87
2022-09-02T12:25:09.922Z,23.91
2022-09-02T12:26:14.064Z,23.91
2022-09-02T12:27:09.929Z,23.81
2022-09-02T12:28:09.927Z,23.77
2022-09-02T12:29:09.927Z,23.74
2022-09-02T12:30:09.933Z,23.80
2022-09-02T12:31:09.987Z,23.81
2022-09-02T12:32:09.937Z,23.69
2022-09-02T12:33:09.932Z,23.76
2022-09-02T12:34:09.934Z,23.73
2022-09-02T12:35:09.936Z,23.69
2022-09-02T12:36:09.939Z,23.66
2022-09-02T12:37:09.937Z,23.71
2022-09-02T12:38:09.945Z,23.63
2022-09-02T12:39:10.074Z,23.59
2022-09-02T12:40:12.978Z,23.63
2022-09-02T12:41:12.855Z,23.71
2022-09-02T12:42:09.942Z,23.83
2022-09-02T12:43:09.948Z,23.76
2022-09-02T12:44:09.945Z,23.73
2022-09-02T12:45:09.943Z,23.81
2022-09-02T12:46:09.971Z,23.78
2022-09-02T12:47:09.947Z,23.77
2022-09-02T12:48:09.950Z,23.77
2022-09-02T12:49:09.950Z,23.78
2022-09-02T12:50:09.951Z,23.81
2022-09-02T12:51:09.950Z,23.83
2022-09-02T12:52:09.952Z,23.74
2022-09-02T12:53:09.952Z,23.73
2022-09-02T12:54:09.955Z,23.81
2022-09-02T12:55:09.955Z,23.84